Time;durP1;ratioP1;P1;durP2;ratioP2;P2;SDS_P1;SDS_P2;PMS_P1;PMS_P2;Temp;Humidity;BMP_temperature;BMP_pressure;BME280_temperature;BME280_humidity;BME280_pressure;Samples;Min_cycle;Max_cycle;Signal;HPM_P1;HPM_P2
2023/03/12 00:00:29;;;;;;;23.58;14.15;;;;;;;;;;5071767;28;20028;-65
2023/03/12 00:02:55;;;;;;;21.40;12.43;;;;;;;;;;5090165;28;20388;-67
2023/03/12 00:05:21;;;;;;;22.98;13.43;;;;;;;;;;5097811;28;20398;-66
2023/03/12 00:07:48;;;;;;;22.63;13.10;;;;;;;;;;5110210;28;20020;-67
2023/03/12 00:10:14;;;;;;;21.25;12.52;;;;;;;;;;5110207;28;20020;-66
2023/03/12 00:12:40;;;;;;;21.77;12.85;;;;;;;;;;5112013;22;20492;-62
2023/03/12 00:15:06;;;;;;;23.75;12.82;;;;;;;;;;5091315;28;20134;-64
2023/03/12 00:17:32;;;;;;;23.73;13.05;;;;;;;;;;5090832;28;20102;-63
2023/03/12 00:19:58;;;;;;;22.92;12.43;;;;;;;;;;5091054;28;20114;-63
2023/03/12 00:22:24;;;;;;;21.05;11.63;;;;;;;;;;5090924;28;20024;-64
2023/03/12 00:24:54;;;;;;;20.65;12.07;;;;;;;;;;5090669;28;20130;-66
2023/03/12 00:27:21;;;;;;;23.33;13.30;;;;;;;;;;5090725;28;20477;-63
2023/03/12 00:29:47;;;;;;;20.50;11.85;;;;;;;;;;5091577;28;20024;-62
2023/03/12 00:32:13;;;;;;;19.55;11.43;;;;;;;;;;5078019;28;20017;-60
2023/03/12 00:34:39;;;;;;;20.85;11.93;;;;;;;;;;5077616;28;20051;-62
2023/03/12 00:37:06;;;;;;;21.73;11.18;;;;;;;;;;5095861;28;20555;-64
2023/03/12 00:39:32;;;;;;;19.38;10.85;;;;;;;;;;5095911;28;20028;-60
2023/03/12 00:41:58;;;;;;;19.23;10.48;;;;;;;;;;5077918;28;20024;-64
2023/03/12 00:44:24;;;;;;;21.35;10.73;;;;;;;;;;5077304;28;20020;-63
2023/03/12 00:46:50;;;;;;;18.98;10.93;;;;;;;;;;5077663;28;20033;-66
2023/03/12 00:49:16;;;;;;;18.65;10.27;;;;;;;;;;5095578;28;20020;-62
2023/03/12 00:51:42;;;;;;;17.63;10.45;;;;;;;;;;5077465;28;20028;-62
2023/03/12 00:54:08;;;;;;;17.92;10.90;;;;;;;;;;5095203;28;20024;-62
2023/03/12 00:56:34;;;;;;;18.58;10.20;;;;;;;;;;5095398;28;20135;-63
2023/03/12 00:59:00;;;;;;;19.88;10.27;;;;;;;;;;5066218;28;20114;-62
2023/03/12 01:01:26;;;;;;;19.05;10.70;;;;;;;;;;5095226;28;20048;-62
2023/03/12 01:03:53;;;;;;;24.05;10.52;;;;;;;;;;5076776;28;20035;-62
2023/03/12 01:06:19;;;;;;;19.55;10.00;;;;;;;;;;5095425;28;20399;-63
2023/03/12 01:08:46;;;;;;;18.55;10.90;;;;;;;;;;5095262;28;20024;-64
2023/03/12 01:11:13;;;;;;;19.40;9.93;;;;;;;;;;5095054;28;20020;-65
2023/03/12 01:13:39;;;;;;;20.23;9.95;;;;;;;;;;5076604;28;20521;-64
2023/03/12 01:16:05;;;;;;;28.05;12.30;;;;;;;;;;5095252;28;20021;-63
2023/03/12 01:18:31;;;;;;;19.85;10.05;;;;;;;;;;5076967;28;20046;-62
2023/03/12 01:20:58;;;;;;;19.92;9.98;;;;;;;;;;5076964;28;20024;-63
2023/03/12 01:23:24;;;;;;;19.13;10.38;;;;;;;;;;5094707;28;20036;-62
2023/03/12 01:25:51;;;;;;;24.13;10.70;;;;;;;;;;5094938;28;20030;-62
2023/03/12 01:28:17;;;;;;;19.38;10.13;;;;;;;;;;5094919;28;20479;-62
2023/03/12 01:30:43;;;;;;;21.65;10.13;;;;;;;;;;5094851;28;20095;-64
2023/03/12 01:33:09;;;;;;;18.45;10.05;;;;;;;;;;5094552;28;20044;-62
2023/03/12 01:35:38;;;;;;;20.42;11.27;;;;;;;;;;5076645;28;20043;-63
2023/03/12 01:38:04;;;;;;;23.48;11.57;;;;;;;;;;5093481;28;20099;-61
2023/03/12 01:40:32;;;;;;;18.02;10.68;;;;;;;;;;5087428;28;20024;-63
2023/03/12 01:42:58;;;;;;;19.02;9.50;;;;;;;;;;5066490;28;20127;-64
2023/03/12 01:45:42;;;;;;;20.95;10.75;;;;;;;;;;5089218;28;20024;-63
2023/03/12 01:48:09;;;;;;;20.55;10.68;;;;;;;;;;5076273;28;20060;-64
2023/03/12 01:50:35;;;;;;;18.35;10.38;;;;;;;;;;5079197;28;20128;-63
2023/03/12 01:53:01;;;;;;;20.40;9.88;;;;;;;;;;5075874;28;20022;-62
2023/03/12 01:55:28;;;;;;;20.23;9.98;;;;;;;;;;5094186;28;20529;-64
2023/03/12 01:57:56;;;;;;;19.35;11.45;;;;;;;;;;5076194;28;20031;-64
2023/03/12 02:00:26;;;;;;;19.80;10.32;;;;;;;;;;5094436;28;20020;-63
2023/03/12 02:02:53;;;;;;;21.95;11.60;;;;;;;;;;5094165;28;20024;-63
2023/03/12 02:05:33;;;;;;;19.65;10.32;;;;;;;;;;5094151;28;20459;-63
2023/03/12 02:07:59;;;;;;;21.48;10.68;;;;;;;;;;5094157;28;20063;-64
2023/03/12 02:10:25;;;;;;;19.42;10.23;;;;;;;;;;5094095;28;20040;-62
2023/03/12 02:12:51;;;;;;;19.05;9.93;;;;;;;;;;5093832;28;20028;-64
2023/03/12 02:15:17;;;;;;;18.13;10.43;;;;;;;;;;5075766;28;20098;-62
2023/03/12 02:17:43;;;;;;;18.17;9.88;;;;;;;;;;5093863;28;20519;-64
2023/03/12 02:20:12;;;;;;;20.70;10.07;;;;;;;;;;5093692;28;20024;-64
2023/03/12 02:22:40;;;;;;;17.30;9.25;;;;;;;;;;5093685;28;20032;-65
2023/03/12 02:25:25;;;;;;;22.17;9.23;;;;;;;;;;5093454;28;20024;-63
2023/03/12 02:27:51;;;;;;;17.58;9.48;;;;;;;;;;5093432;28;20427;-65
2023/03/12 02:30:17;;;;;;;20.98;9.95;;;;;;;;;;5093800;28;20056;-64
2023/03/12 02:32:44;;;;;;;19.15;9.80;;;;;;;;;;5093440;28;20078;-64
2023/03/12 02:35:11;;;;;;;20.75;10.95;;;;;;;;;;5075130;28;20028;-63
2023/03/12 02:37:46;;;;;;;22.30;9.98;;;;;;;;;;5093796;28;20021;-62
2023/03/12 02:40:22;;;;;;;18.08;9.57;;;;;;;;;;5093500;28;20020;-63
2023/03/12 02:42:48;;;;;;;19.52;10.20;;;;;;;;;;5093456;28;20020;-62
2023/03/12 02:45:14;;;;;;;17.20;9.93;;;;;;;;;;5093179;28;20020;-63
2023/03/12 02:47:40;;;;;;;19.45;9.35;;;;;;;;;;5093379;28;20035;-63
2023/03/12 02:50:06;;;;;;;24.23;11.00;;;;;;;;;;5075090;28;20024;-64
2023/03/12 02:52:35;;;;;;;18.98;11.20;;;;;;;;;;5092392;28;20024;-64
2023/03/12 02:55:01;;;;;;;18.10;10.05;;;;;;;;;;5093259;28;20016;-64
2023/03/12 02:57:27;;;;;;;19.30;10.10;;;;;;;;;;5093126;28;20388;-65
2023/03/12 02:59:53;;;;;;;19.02;10.63;;;;;;;;;;5092941;28;20024;-62
2023/03/12 03:02:19;;;;;;;20.65;10.85;;;;;;;;;;5092929;28;20024;-64
2023/03/12 03:04:46;;;;;;;21.00;11.07;;;;;;;;;;5074683;28;20044;-64
2023/03/12 03:07:13;;;;;;;20.02;10.70;;;;;;;;;;5093096;28;20028;-64
2023/03/12 03:09:39;;;;;;;18.98;10.27;;;;;;;;;;5092937;28;20081;-62
2023/03/12 03:12:05;;;;;;;20.85;10.68;;;;;;;;;;5092713;28;20024;-64
2023/03/12 03:14:31;;;;;;;20.10;11.23;;;;;;;;;;5092430;28;20454;-62
2023/03/12 03:16:57;;;;;;;18.60;10.63;;;;;;;;;;5074486;28;20016;-65
2023/03/12 03:19:23;;;;;;;18.10;9.93;;;;;;;;;;5074595;28;20028;-63
2023/03/12 03:21:49;;;;;;;21.67;10.65;;;;;;;;;;5092592;28;20442;-62
2023/03/12 03:24:15;;;;;;;17.23;9.68;;;;;;;;;;5074105;28;20035;-64
2023/03/12 03:26:41;;;;;;;20.00;11.18;;;;;;;;;;5092461;28;20028;-64
2023/03/12 03:29:07;;;;;;;18.42;10.90;;;;;;;;;;5092227;28;20063;-63
2023/03/12 03:31:33;;;;;;;23.33;11.40;;;;;;;;;;5074570;28;20031;-63
2023/03/12 03:33:59;;;;;;;19.98;10.80;;;;;;;;;;5092256;28;20024;-63
2023/03/12 03:36:25;;;;;;;19.48;10.60;;;;;;;;;;5092498;28;20031;-63
2023/03/12 03:38:51;;;;;;;20.25;10.73;;;;;;;;;;5092365;28;20080;-64
2023/03/12 03:41:18;;;;;;;17.83;10.70;;;;;;;;;;5074326;28;20477;-64
2023/03/12 03:43:44;;;;;;;17.73;10.60;;;;;;;;;;5092005;28;20024;-64
2023/03/12 03:46:11;;;;;;;20.63;11.23;;;;;;;;;;5092237;28;20028;-63
2023/03/12 03:48:37;;;;;;;18.92;10.15;;;;;;;;;;5092019;28;20024;-62
2023/03/12 03:51:04;;;;;;;19.05;10.57;;;;;;;;;;5074182;28;20020;-63
2023/03/12 03:53:31;;;;;;;19.65;10.35;;;;;;;;;;5073384;28;20438;-64
2023/03/12 03:55:57;;;;;;;20.85;10.95;;;;;;;;;;5091985;28;20016;-64
2023/03/12 03:58:23;;;;;;;18.63;10.63;;;;;;;;;;5092164;28;20050;-64
2023/03/12 04:00:49;;;;;;;20.13;10.30;;;;;;;;;;5091945;28;20032;-63
2023/03/12 04:03:16;;;;;;;17.25;9.32;;;;;;;;;;5091710;28;20031;-65
2023/03/12 04:05:45;;;;;;;19.75;10.48;;;;;;;;;;5090993;28;20453;-64
2023/03/12 04:08:11;;;;;;;18.23;10.57;;;;;;;;;;5073735;28;20052;-63
2023/03/12 04:10:37;;;;;;;16.67;9.05;;;;;;;;;;5091922;28;20024;-64
2023/03/12 04:13:03;;;;;;;18.42;10.00;;;;;;;;;;5091386;28;20096;-62
2023/03/12 04:15:29;;;;;;;16.90;9.82;;;;;;;;;;5073567;28;20072;-62
2023/03/12 04:17:55;;;;;;;19.15;10.65;;;;;;;;;;5073795;28;20063;-64
2023/03/12 04:20:21;;;;;;;21.30;10.55;;;;;;;;;;5091868;28;20031;-63
2023/03/12 04:22:47;;;;;;;17.33;10.32;;;;;;;;;;5091942;28;20028;-63
2023/03/12 04:25:13;;;;;;;18.33;9.57;;;;;;;;;;5075797;28;20024;-64
2023/03/12 04:27:39;;;;;;;18.02;10.02;;;;;;;;;;5092028;28;20024;-63
2023/03/12 04:30:06;;;;;;;19.92;10.98;;;;;;;;;;5073841;28;20032;-64
2023/03/12 04:32:32;;;;;;;16.83;9.80;;;;;;;;;;5073841;28;20013;-60
2023/03/12 04:34:58;;;;;;;17.27;9.40;;;;;;;;;;5073513;28;20024;-65
2023/03/12 04:37:24;;;;;;;17.83;9.52;;;;;;;;;;5073585;28;20122;-68
2023/03/12 04:39:50;;;;;;;17.85;10.52;;;;;;;;;;5091457;28;20032;-64
2023/03/12 04:42:16;;;;;;;17.63;10.02;;;;;;;;;;5091759;28;20503;-63
2023/03/12 04:44:42;;;;;;;18.05;11.02;;;;;;;;;;5091434;28;20077;-63
2023/03/12 04:47:08;;;;;;;18.65;9.95;;;;;;;;;;5091709;28;20487;-62
2023/03/12 04:49:34;;;;;;;18.30;9.88;;;;;;;;;;5091754;28;20017;-64
2023/03/12 04:52:00;;;;;;;18.85;10.88;;;;;;;;;;5073515;28;20020;-63
2023/03/12 04:54:26;;;;;;;17.33;9.63;;;;;;;;;;5073273;28;20025;-63
2023/03/12 04:56:52;;;;;;;17.45;9.50;;;;;;;;;;5073462;28;20392;-63
2023/03/12 04:59:17;;;;;;;17.60;10.20;;;;;;;;;;5073642;28;20024;-62
2023/03/12 05:01:43;;;;;;;18.05;9.52;;;;;;;;;;5091827;28;20472;-64
2023/03/12 05:04:09;;;;;;;18.55;10.93;;;;;;;;;;5091236;28;20024;-63
2023/03/12 05:06:35;;;;;;;18.23;10.10;;;;;;;;;;5073366;28;20077;-64
2023/03/12 05:09:02;;;;;;;19.45;9.23;;;;;;;;;;5091588;28;20071;-63
2023/03/12 05:11:29;;;;;;;17.50;9.57;;;;;;;;;;5091526;28;20426;-61
2023/03/12 05:13:55;;;;;;;16.48;8.60;;;;;;;;;;5091115;28;20028;-63
2023/03/12 05:16:21;;;;;;;16.90;8.93;;;;;;;;;;5093360;28;20037;-64
2023/03/12 05:18:47;;;;;;;19.15;9.70;;;;;;;;;;5095407;28;20024;-61
2023/03/12 05:21:14;;;;;;;16.77;8.77;;;;;;;;;;5094874;28;20027;-64
2023/03/12 05:23:41;;;;;;;16.38;9.40;;;;;;;;;;5094855;28;20020;-62
2023/03/12 05:26:18;;;;;;;18.20;9.23;;;;;;;;;;5077040;28;20539;-63
2023/03/12 05:28:44;;;;;;;16.55;8.90;;;;;;;;;;5076633;28;20024;-63
2023/03/12 05:31:11;;;;;;;18.27;8.82;;;;;;;;;;5094840;28;20028;-63
2023/03/12 05:33:37;;;;;;;18.92;9.20;;;;;;;;;;5094607;28;20373;-64
2023/03/12 05:36:03;;;;;;;17.75;9.30;;;;;;;;;;5094859;28;20027;-60
2023/03/12 05:38:29;;;;;;;17.17;9.02;;;;;;;;;;5094665;28;20031;-60
2023/03/12 05:40:58;;;;;;;18.98;9.52;;;;;;;;;;5094847;28;20032;-64
2023/03/12 05:43:24;;;;;;;17.15;9.20;;;;;;;;;;5094248;28;20117;-62
2023/03/12 05:45:50;;;;;;;17.35;8.80;;;;;;;;;;5094450;28;20122;-64
2023/03/12 05:48:16;;;;;;;17.05;9.10;;;;;;;;;;5076271;28;20115;-62
2023/03/12 05:50:42;;;;;;;17.40;9.02;;;;;;;;;;5076307;28;20496;-64
2023/03/12 05:53:09;;;;;;;17.48;9.10;;;;;;;;;;5094344;28;20024;-64
2023/03/12 05:55:35;;;;;;;15.32;8.18;;;;;;;;;;5094532;28;20021;-62
2023/03/12 05:58:01;;;;;;;19.42;9.07;;;;;;;;;;5076549;28;20050;-62
2023/03/12 06:00:27;;;;;;;17.65;8.73;;;;;;;;;;5094586;28;20476;-63
2023/03/12 06:02:53;;;;;;;16.83;9.02;;;;;;;;;;5094425;28;20103;-63
2023/03/12 06:05:19;;;;;;;17.17;8.38;;;;;;;;;;5093984;28;20530;-63
2023/03/12 06:07:45;;;;;;;14.13;7.93;;;;;;;;;;5094286;28;20024;-63
2023/03/12 06:10:12;;;;;;;17.55;8.65;;;;;;;;;;5094356;28;20016;-63
2023/03/12 06:15:07;;;;;;;15.38;8.10;;;;;;;;;;5107394;22;20044;-65
2023/03/12 06:17:33;;;;;;;17.50;8.70;;;;;;;;;;5092853;28;20112;-65
2023/03/12 06:19:59;;;;;;;15.48;8.20;;;;;;;;;;5093143;28;20031;-65
2023/03/12 06:22:25;;;;;;;16.45;8.63;;;;;;;;;;5092742;28;20028;-64
2023/03/12 06:24:52;;;;;;;15.88;8.55;;;;;;;;;;5073953;28;20020;-64
2023/03/12 06:27:18;;;;;;;18.02;7.93;;;;;;;;;;5091809;28;20494;-63
2023/03/12 06:29:46;;;;;;;17.98;9.20;;;;;;;;;;5092932;28;20095;-63
2023/03/12 06:32:12;;;;;;;17.20;8.70;;;;;;;;;;5074749;28;20035;-63
2023/03/12 06:34:38;;;;;;;15.68;8.10;;;;;;;;;;5092903;28;20028;-64
2023/03/12 06:37:04;;;;;;;17.08;8.38;;;;;;;;;;5093285;28;20070;-64
2023/03/12 06:39:30;;;;;;;17.77;8.40;;;;;;;;;;5090149;28;20026;-63
2023/03/12 06:41:56;;;;;;;18.67;8.50;;;;;;;;;;5090147;28;20108;-64
2023/03/12 06:44:22;;;;;;;17.85;8.48;;;;;;;;;;5093039;28;20043;-63
2023/03/12 06:46:48;;;;;;;16.33;8.25;;;;;;;;;;5092750;28;20539;-66
2023/03/12 06:49:14;;;;;;;15.48;8.35;;;;;;;;;;5092029;28;20384;-66
2023/03/12 06:51:40;;;;;;;16.38;8.05;;;;;;;;;;5091937;28;20103;-66
2023/03/12 06:54:06;;;;;;;18.20;8.25;;;;;;;;;;5073211;28;20055;-65
2023/03/12 06:56:32;;;;;;;19.23;8.52;;;;;;;;;;5091730;28;20024;-66
2023/03/12 06:58:58;;;;;;;16.92;8.32;;;;;;;;;;5090948;28;20059;-65
2023/03/12 07:01:24;;;;;;;16.05;8.40;;;;;;;;;;5081975;28;20537;-66
2023/03/12 07:03:50;;;;;;;16.02;8.88;;;;;;;;;;5091962;28;20103;-65
2023/03/12 07:06:21;;;;;;;19.83;8.95;;;;;;;;;;5092962;28;20024;-65
2023/03/12 07:08:47;;;;;;;15.45;8.30;;;;;;;;;;5091632;28;20031;-64
2023/03/12 07:11:14;;;;;;;17.50;8.23;;;;;;;;;;5092273;28;20034;-65
2023/03/12 07:13:40;;;;;;;14.80;7.82;;;;;;;;;;5089946;28;20048;-65
2023/03/12 07:16:06;;;;;;;15.63;8.27;;;;;;;;;;5072202;28;20024;-65
2023/03/12 07:18:33;;;;;;;18.30;8.60;;;;;;;;;;5072048;28;20108;-64
2023/03/12 07:20:59;;;;;;;16.90;8.10;;;;;;;;;;5082924;28;20024;-66
2023/03/12 07:23:25;;;;;;;17.65;7.65;;;;;;;;;;5082291;28;20391;-63
2023/03/12 07:25:51;;;;;;;16.52;8.00;;;;;;;;;;5091851;28;20059;-64
2023/03/12 07:28:18;;;;;;;16.80;7.80;;;;;;;;;;5091852;28;20036;-63
2023/03/12 07:30:49;;;;;;;15.73;7.80;;;;;;;;;;5091598;28;20031;-64
2023/03/12 07:33:16;;;;;;;15.73;7.80;;;;;;;;;;5072544;28;20028;-64
2023/03/12 07:35:42;;;;;;;14.35;7.50;;;;;;;;;;5091143;28;20028;-65
2023/03/12 07:38:08;;;;;;;16.05;7.63;;;;;;;;;;5091234;28;20031;-65
2023/03/12 07:40:35;;;;;;;16.63;7.95;;;;;;;;;;5090693;28;20020;-65
2023/03/12 07:43:01;;;;;;;15.35;7.60;;;;;;;;;;5072648;28;20432;-65
2023/03/12 07:45:27;;;;;;;18.58;7.63;;;;;;;;;;5072522;28;20027;-66
2023/03/12 07:47:53;;;;;;;19.80;9.02;;;;;;;;;;5090734;28;20062;-65
2023/03/12 07:50:19;;;;;;;14.82;7.63;;;;;;;;;;5072546;28;20024;-64
2023/03/12 07:52:46;;;;;;;16.38;7.60;;;;;;;;;;5090332;28;20107;-64
2023/03/12 07:55:12;;;;;;;16.75;7.40;;;;;;;;;;5090291;28;20050;-64
2023/03/12 07:57:38;;;;;;;16.33;8.68;;;;;;;;;;5090562;28;20024;-64
2023/03/12 08:00:06;;;;;;;15.18;7.82;;;;;;;;;;5090694;28;20067;-64
2023/03/12 08:02:33;;;;;;;15.73;7.70;;;;;;;;;;5072391;28;20452;-64
2023/03/12 08:04:59;;;;;;;15.57;7.70;;;;;;;;;;5089955;28;20036;-65
2023/03/12 08:07:30;;;;;;;18.08;8.15;;;;;;;;;;5090450;28;20032;-64
2023/03/12 08:09:56;;;;;;;14.63;8.30;;;;;;;;;;5090222;28;20064;-64
2023/03/12 08:12:22;;;;;;;15.30;8.00;;;;;;;;;;5091041;28;20390;-63
2023/03/12 08:14:48;;;;;;;17.10;7.75;;;;;;;;;;5090754;28;20032;-63
2023/03/12 08:17:14;;;;;;;16.00;7.72;;;;;;;;;;5091173;28;20445;-63
2023/03/12 08:19:41;;;;;;;17.55;8.63;;;;;;;;;;5090936;28;20181;-62
2023/03/12 08:22:07;;;;;;;16.02;8.18;;;;;;;;;;5091067;28;20026;-63
2023/03/12 08:24:34;;;;;;;14.93;8.20;;;;;;;;;;5090602;28;20384;-64
2023/03/12 08:27:00;;;;;;;20.83;9.05;;;;;;;;;;5091085;28;20077;-64
2023/03/12 08:29:26;;;;;;;14.93;8.70;;;;;;;;;;5090993;28;20476;-63
2023/03/12 08:31:52;;;;;;;16.13;8.65;;;;;;;;;;5097056;28;20024;-62
2023/03/12 08:34:18;;;;;;;17.85;9.25;;;;;;;;;;5073239;28;20078;-63
2023/03/12 08:36:44;;;;;;;18.85;9.25;;;;;;;;;;5090539;28;20028;-64
2023/03/12 08:39:10;;;;;;;16.42;9.20;;;;;;;;;;5072421;28;20031;-64
2023/03/12 08:41:36;;;;;;;17.75;9.77;;;;;;;;;;5090248;28;20047;-64
2023/03/12 08:44:02;;;;;;;16.48;10.30;;;;;;;;;;5090035;28;20077;-63
2023/03/12 08:46:28;;;;;;;16.33;10.80;;;;;;;;;;5090159;28;20028;-66
2023/03/12 08:48:54;;;;;;;16.35;11.02;;;;;;;;;;5089968;28;20030;-64
2023/03/12 08:51:20;;;;;;;19.75;12.25;;;;;;;;;;5091380;28;20028;-64
2023/03/12 08:53:46;;;;;;;18.42;11.15;;;;;;;;;;5093552;28;20443;-64
2023/03/12 08:56:13;;;;;;;17.35;12.05;;;;;;;;;;5093925;28;20115;-66
2023/03/12 08:58:39;;;;;;;18.40;11.82;;;;;;;;;;5093607;28;20073;-59
2023/03/12 09:01:08;;;;;;;16.88;11.77;;;;;;;;;;5093658;28;20043;-61
2023/03/12 09:03:34;;;;;;;18.17;11.90;;;;;;;;;;5074820;28;20043;-60
2023/03/12 09:06:05;;;;;;;18.77;11.77;;;;;;;;;;5093409;28;20031;-60
2023/03/12 09:08:32;;;;;;;20.00;12.43;;;;;;;;;;5092635;28;20052;-60
2023/03/12 09:10:59;;;;;;;17.02;12.13;;;;;;;;;;5091978;28;20031;-60
2023/03/12 09:13:25;;;;;;;18.63;11.90;;;;;;;;;;5092756;28;20039;-60
2023/03/12 09:15:51;;;;;;;17.60;12.57;;;;;;;;;;5093098;28;20480;-60
2023/03/12 09:18:19;;;;;;;18.13;12.60;;;;;;;;;;5093103;28;20465;-60
2023/03/12 09:20:45;;;;;;;19.20;13.05;;;;;;;;;;5092912;28;20020;-60
2023/03/12 09:23:11;;;;;;;17.50;11.98;;;;;;;;;;5092644;28;20032;-60
2023/03/12 09:25:37;;;;;;;18.88;11.95;;;;;;;;;;5092993;28;20111;-60
2023/03/12 09:28:03;;;;;;;19.10;13.05;;;;;;;;;;5091707;28;20110;-58
2023/03/12 09:30:30;;;;;;;17.98;12.52;;;;;;;;;;5087001;28;20042;-58
2023/03/12 09:32:57;;;;;;;17.60;11.90;;;;;;;;;;5088612;28;20013;-60
2023/03/12 09:35:23;;;;;;;17.80;12.10;;;;;;;;;;5090508;28;20023;-60
2023/03/12 09:37:50;;;;;;;20.10;12.25;;;;;;;;;;5092727;28;20077;-60
2023/03/12 09:40:18;;;;;;;17.30;12.38;;;;;;;;;;5092518;28;20036;-60
2023/03/12 09:42:47;;;;;;;20.10;12.98;;;;;;;;;;5092417;28;20538;-60
2023/03/12 09:45:19;;;;;;;17.27;12.00;;;;;;;;;;5091854;28;21057;-58
2023/03/12 09:47:50;;;;;;;18.88;12.25;;;;;;;;;;5085376;28;20028;-61
2023/03/12 09:50:16;;;;;;;20.65;11.70;;;;;;;;;;5091822;28;20012;-62
2023/03/12 09:52:46;;;;;;;20.38;12.00;;;;;;;;;;5092304;28;20427;-60
2023/03/12 09:55:13;;;;;;;19.70;11.77;;;;;;;;;;5091310;28;20016;-63
2023/03/12 09:57:40;;;;;;;19.95;12.45;;;;;;;;;;5091248;28;20028;-62
2023/03/12 10:00:11;;;;;;;22.48;13.77;;;;;;;;;;5092566;28;20151;-63
2023/03/12 10:02:37;;;;;;;20.02;13.35;;;;;;;;;;5092559;28;20044;-62
2023/03/12 10:05:08;;;;;;;19.67;14.50;;;;;;;;;;5092313;28;20469;-63
2023/03/12 10:07:37;;;;;;;19.52;14.00;;;;;;;;;;5092252;28;20028;-61
2023/03/12 10:10:06;;;;;;;30.48;15.88;;;;;;;;;;5092464;28;20020;-61
2023/03/12 10:12:51;;;;;;;25.08;16.20;;;;;;;;;;5092257;28;20032;-62
2023/03/12 10:15:38;;;;;;;19.08;14.52;;;;;;;;;;5092090;28;20089;-61
2023/03/12 10:18:13;;;;;;;19.33;14.83;;;;;;;;;;5092264;28;20035;-62
2023/03/12 10:20:58;;;;;;;20.35;16.13;;;;;;;;;;5090829;28;20116;-62
2023/03/12 10:23:27;;;;;;;20.33;16.50;;;;;;;;;;5092026;28;20107;-61
2023/03/12 10:26:09;;;;;;;25.63;16.27;;;;;;;;;;5092201;28;20016;-60
2023/03/12 10:29:13;;;;;;;22.88;17.35;;;;;;;;;;5092124;28;20157;-63
2023/03/12 10:31:48;;;;;;;24.60;16.92;;;;;;;;;;5012882;28;20136;-61
2023/03/12 10:34:16;;;;;;;24.58;17.20;;;;;;;;;;5029029;28;20045;-61
2023/03/12 10:36:42;;;;;;;;;;;;;;;;;;5063767;28;20161;-60
2023/03/12 10:39:16;;;;;;;23.05;17.80;;;;;;;;;;5091699;28;19939;-64
2023/03/12 10:41:44;;;;;;;22.63;17.90;;;;;;;;;;5091633;28;20024;-61
2023/03/12 10:44:14;;;;;;;22.42;18.20;;;;;;;;;;5091249;28;20086;-62
2023/03/12 10:46:58;;;;;;;26.05;19.58;;;;;;;;;;5073621;28;20028;-61
2023/03/12 10:49:24;;;;;;;23.63;18.98;;;;;;;;;;5091487;28;20028;-63
2023/03/12 10:52:14;;;;;;;23.55;18.30;;;;;;;;;;5091940;28;20453;-62
2023/03/12 10:54:43;;;;;;;26.50;19.65;;;;;;;;;;5080831;28;20035;-62
2023/03/12 10:57:10;;;;;;;23.38;18.73;;;;;;;;;;5091336;28;20024;-61
2023/03/12 10:59:38;;;;;;;24.95;20.13;;;;;;;;;;5091396;28;20449;-61
2023/03/12 11:02:23;;;;;;;25.50;19.80;;;;;;;;;;5073161;28;20020;-61
2023/03/12 11:04:52;;;;;;;23.48;17.85;;;;;;;;;;5090828;28;20053;-60
2023/03/12 11:07:18;;;;;;;23.67;19.40;;;;;;;;;;5091111;28;20024;-62
2023/03/12 11:09:44;;;;;;;24.95;19.50;;;;;;;;;;5091050;28;20081;-61
2023/03/12 11:12:25;;;;;;;26.38;19.95;;;;;;;;;;5091175;28;20035;-62
2023/03/12 11:14:51;;;;;;;26.13;19.63;;;;;;;;;;5089967;28;20032;-60
2023/03/12 11:17:21;;;;;;;23.75;19.58;;;;;;;;;;5090926;28;20550;-62
2023/03/12 11:19:47;;;;;;;26.00;20.38;;;;;;;;;;5090837;28;20031;-61
2023/03/12 11:22:15;;;;;;;25.42;20.02;;;;;;;;;;5090904;28;20072;-62
2023/03/12 11:25:04;;;;;;;26.95;22.13;;;;;;;;;;5090579;28;20115;-61
2023/03/12 11:27:36;;;;;;;27.67;23.52;;;;;;;;;;5090758;28;20031;-59
2023/03/12 11:30:05;;;;;;;27.48;24.52;;;;;;;;;;5090593;28;20142;-61
2023/03/12 11:32:33;;;;;;;27.08;24.17;;;;;;;;;;5090773;28;20023;-61
2023/03/12 11:34:59;;;;;;;;;;;;;;;;;;5090678;28;20035;-61
2023/03/12 11:37:51;;;;;;;29.17;24.52;;;;;;;;;;5090602;28;20240;-61
2023/03/12 11:40:17;;;;;;;27.23;24.42;;;;;;;;;;5084209;28;20028;-59
2023/03/12 11:42:54;;;;;;;28.00;25.10;;;;;;;;;;5090412;28;20023;-57
2023/03/12 11:45:20;;;;;;;27.88;24.85;;;;;;;;;;5087374;28;20102;-56
2023/03/12 11:48:05;;;;;;;28.67;25.65;;;;;;;;;;5074729;28;20435;-59
2023/03/12 11:50:33;;;;;;;26.85;24.08;;;;;;;;;;5078723;28;20103;-60
2023/03/12 11:53:19;;;;;;;31.05;27.63;;;;;;;;;;5083198;28;20070;-60
2023/03/12 11:55:51;;;;;;;30.63;27.27;;;;;;;;;;5089785;28;20028;-60
2023/03/12 11:58:26;;;;;;;31.52;27.55;;;;;;;;;;5090872;28;20024;-61
2023/03/12 12:01:12;;;;;;;33.10;29.13;;;;;;;;;;5090581;28;20060;-59
2023/03/12 12:03:50;;;;;;;29.73;26.42;;;;;;;;;;5058041;28;20024;-60
2023/03/12 12:06:19;;;;;;;32.90;29.63;;;;;;;;;;5071141;28;20047;-61
2023/03/12 12:09:01;;;;;;;32.88;28.65;;;;;;;;;;5069893;28;20129;-61
2023/03/12 12:11:44;;;;;;;32.42;29.08;;;;;;;;;;5069918;28;20231;-61
2023/03/12 12:14:33;;;;;;;31.65;27.30;;;;;;;;;;5093655;22;20041;-59
2023/03/12 12:17:18;;;;;;;33.25;29.35;;;;;;;;;;5064317;28;20078;-63
2023/03/12 12:19:56;;;;;;;31.75;28.33;;;;;;;;;;5055059;28;20032;-62
2023/03/12 12:22:25;;;;;;;31.98;28.45;;;;;;;;;;5073028;28;20031;-63
2023/03/12 12:25:00;;;;;;;35.13;29.52;;;;;;;;;;5086242;28;20115;-62
2023/03/12 12:27:31;;;;;;;30.88;27.58;;;;;;;;;;5078388;28;20491;-63
2023/03/12 12:30:03;;;;;;;32.42;28.92;;;;;;;;;;5097046;28;20107;-63
2023/03/12 12:32:29;;;;;;;30.20;26.92;;;;;;;;;;5096627;28;20024;-63
2023/03/12 12:34:58;;;;;;;32.30;28.63;;;;;;;;;;5077971;28;20027;-63
2023/03/12 12:37:24;;;;;;;37.15;32.90;;;;;;;;;;5096310;28;20058;-61
2023/03/12 12:40:07;;;;;;;32.42;28.70;;;;;;;;;;5077923;28;20472;-62
2023/03/12 12:42:36;;;;;;;36.47;31.42;;;;;;;;;;5045679;28;20112;-63
2023/03/12 12:45:01;;;;;;;;;;;;;;;;;;5054721;28;20508;-63
2023/03/12 12:47:38;;;;;;;32.80;28.42;;;;;;;;;;5055406;28;19931;-60
2023/03/12 12:50:04;;;;;;;36.15;32.17;;;;;;;;;;5056090;28;20033;-63
2023/03/12 12:52:31;;;;;;;35.60;31.77;;;;;;;;;;5055429;28;20017;-64
2023/03/12 12:54:57;;;;;;;35.17;31.40;;;;;;;;;;5055404;28;20025;-62
2023/03/12 12:57:27;;;;;;;37.88;32.42;;;;;;;;;;5055496;28;20045;-64
2023/03/12 13:00:14;;;;;;;37.97;34.17;;;;;;;;;;5054311;28;20048;-64
2023/03/12 13:02:43;;;;;;;40.85;36.65;;;;;;;;;;5055712;28;20489;-62
2023/03/12 13:05:26;;;;;;;41.53;37.13;;;;;;;;;;5055262;28;20025;-61
2023/03/12 13:07:53;;;;;;;39.88;35.88;;;;;;;;;;5055189;28;20100;-64
2023/03/12 13:10:39;;;;;;;41.50;35.75;;;;;;;;;;5053790;28;20025;-64
2023/03/12 13:13:13;;;;;;;41.88;36.97;;;;;;;;;;5054679;28;20029;-64
2023/03/12 13:15:42;;;;;;;36.78;32.83;;;;;;;;;;5060008;28;20020;-63
2023/03/12 13:18:25;;;;;;;41.15;36.72;;;;;;;;;;5065932;28;20448;-62
2023/03/12 13:20:51;;;;;;;42.58;38.08;;;;;;;;;;5073559;28;20020;-64
2023/03/12 13:23:23;;;;;;;39.33;35.20;;;;;;;;;;5067282;28;20408;-65
2023/03/12 13:26:08;;;;;;;39.22;34.95;;;;;;;;;;5073680;28;20028;-64
2023/03/12 13:28:34;;;;;;;42.28;36.55;;;;;;;;;;5074761;28;20439;-62
2023/03/12 13:31:20;;;;;;;41.75;37.15;;;;;;;;;;5074605;28;20396;-63
2023/03/12 13:33:48;;;;;;;42.45;37.85;;;;;;;;;;5072854;28;20027;-63
2023/03/12 13:36:22;;;;;;;41.53;37.10;;;;;;;;;;5074259;28;20488;-64
2023/03/12 13:39:17;;;;;;;39.63;35.35;;;;;;;;;;5074463;28;20062;-64
2023/03/12 13:41:48;;;;;;;40.75;36.17;;;;;;;;;;5065544;28;20075;-62
2023/03/12 13:44:30;;;;;;;46.95;37.28;;;;;;;;;;5052935;28;20021;-62
2023/03/12 13:47:05;;;;;;;43.78;35.28;;;;;;;;;;5053074;28;20013;-64
2023/03/12 13:49:36;;;;;;;42.78;36.90;;;;;;;;;;5054379;28;20111;-64
2023/03/12 13:52:09;;;;;;;43.03;36.92;;;;;;;;;;5053654;28;20358;-64
2023/03/12 13:54:40;;;;;;;44.95;37.80;;;;;;;;;;5077074;28;20024;-64
2023/03/12 13:57:10;;;;;;;44.38;37.25;;;;;;;;;;5095288;28;20020;-64
2023/03/12 13:59:42;;;;;;;44.22;38.03;;;;;;;;;;5094452;28;20484;-64
2023/03/12 14:02:15;;;;;;;41.03;36.03;;;;;;;;;;5094790;28;20051;-63
2023/03/12 14:04:41;;;;;;;42.80;36.25;;;;;;;;;;5076352;28;20480;-62
2023/03/12 14:07:32;;;;;;;44.38;37.22;;;;;;;;;;5076289;28;20036;-61
2023/03/12 14:10:17;;;;;;;45.33;36.58;;;;;;;;;;5076270;28;20035;-64
2023/03/12 14:12:49;;;;;;;42.75;37.35;;;;;;;;;;5094486;28;20031;-65
2023/03/12 14:15:24;;;;;;;40.22;35.40;;;;;;;;;;5093724;28;20518;-64
2023/03/12 14:18:00;;;;;;;38.60;33.80;;;;;;;;;;5093776;28;20063;-62
2023/03/12 14:20:26;;;;;;;41.45;34.75;;;;;;;;;;5093869;28;20396;-63
2023/03/12 14:22:55;;;;;;;43.05;35.83;;;;;;;;;;5093674;28;20099;-64
2023/03/12 14:25:36;;;;;;;36.88;29.58;;;;;;;;;;5093254;28;20050;-65
2023/03/12 14:28:02;;;;;;;41.25;30.83;;;;;;;;;;5067781;28;20029;-65
2023/03/12 14:30:48;;;;;;;34.25;26.92;;;;;;;;;;5065672;28;20103;-65
2023/03/12 14:33:15;;;;;;;37.35;27.98;;;;;;;;;;5066126;28;20042;-66
2023/03/12 14:35:46;;;;;;;35.53;28.73;;;;;;;;;;5073082;28;20029;-63